<?xml version="1.0" encoding="UTF-8" standalone="no" ?>
<gpx xmlns="http://www.topografix.com/GPX/1/1" xmlns:xsi="http://www.w3.org/2001/XMLSchema-instance" xsi:schemaLocation="http://www.topografix.com/GPX/1/1 http://www.topografix.com/GPX/1/1/gpx.xsd" version="1.1" creator="VisuGPX - https://www.visugpx.com">
  <metadata>
    <name>Bec Pointu depuis la Vallée de Quint</name>
  </metadata>
  <wpt lat="44.82843" lon="5.27195">
    <ele>518</ele>
    <name><![CDATA[Parking randonneurs 500 mètres après le Hameau]]></name>
  </wpt>
  <wpt lat="44.82963" lon="5.26109">
    <ele>560</ele>
    <name><![CDATA[chemin à droite ]]></name>
  </wpt>
  <wpt lat="44.83042" lon="5.25933">
    <ele>591</ele>
    <name><![CDATA[Poteau "Faucon", sentier à droite ]]></name>
  </wpt>
  <wpt lat="44.83158" lon="5.25879">
    <ele>622</ele>
    <name><![CDATA[sentier à gauche ]]></name>
  </wpt>
  <wpt lat="44.83739" lon="5.24851">
    <ele>756</ele>
    <name><![CDATA[piste tourner à gauche ]]></name>
  </wpt>
  <wpt lat="44.83886" lon="5.24488">
    <ele>878</ele>
    <name><![CDATA[fin piste début sentier ]]></name>
  </wpt>
  <wpt lat="44.83933" lon="5.24399">
    <ele>925</ele>
    <name><![CDATA[virer à gauche sentier en face non sur carte ]]></name>
  </wpt>
  <wpt lat="44.83798" lon="5.23799">
    <ele>1251</ele>
    <name><![CDATA[Poteau "La Côte"]]></name>
  </wpt>
  <wpt lat="44.83376" lon="5.23309">
    <ele>1329</ele>
    <name><![CDATA[Sommet du >]]></name>
  </wpt>
  <wpt lat="44.83799" lon="5.238">
    <ele>1251</ele>
    <name><![CDATA[panneau la côte tourner à droite ]]></name>
  </wpt>
  <wpt lat="44.83399" lon="5.2405">
    <ele>1182</ele>
    <name><![CDATA[Grotte de la Baume à gauche]]></name>
  </wpt>
  <wpt lat="44.82732" lon="5.24108">
    <ele>869</ele>
    <name><![CDATA[Poteau sans indication, à gauche ]]></name>
  </wpt>
  <wpt lat="44.82084" lon="5.24236">
    <ele>739</ele>
    <name><![CDATA[A gauche au >]]></name>
  </wpt>
  <wpt lat="44.82535" lon="5.24793">
    <ele>673</ele>
    <name><![CDATA[Virage, descendre sur le chemin en contrebas ]]></name>
  </wpt>
  <wpt lat="44.8266" lon="5.24845">
    <ele>651</ele>
    <name><![CDATA[Sentier en face]]></name>
  </wpt>
  <wpt lat="44.82631" lon="5.25888">
    <ele>584</ele>
    <name><![CDATA[Piste, à gauche ]]></name>
  </wpt>
  <wpt lat="44.82908" lon="5.25849">
    <ele>566</ele>
    <name><![CDATA[Bifurcation, à droite ]]></name>
  </wpt>
  <wpt lat="44.82843" lon="5.27195">
    <ele>518</ele>
    <name><![CDATA[Parking randonneurs 500 mètres après le Hameau]]></name>
  </wpt>
  <trk>
    <name><![CDATA[Bec Pointu depuis la Vallée de Quint]]></name>
    <trkseg>
      <trkpt lat="44.82843" lon="5.27195">
        <ele>518</ele>
        <time>2020-02-23T09:48:43+01:00</time>
      </trkpt>
      <trkpt lat="44.82839" lon="5.27182">
        <ele>519</ele>
        <time>2020-02-23T09:49:02+01:00</time>
      </trkpt>
      <trkpt lat="44.8281" lon="5.27132">
        <ele>522</ele>
        <time>2020-02-23T09:49:39+01:00</time>
      </trkpt>
      <trkpt lat="44.82782" lon="5.27045">
        <ele>522</ele>
        <time>2020-02-23T09:50:03+01:00</time>
      </trkpt>
      <trkpt lat="44.82751" lon="5.26967">
        <ele>523</ele>
        <time>2020-02-23T09:51:10+01:00</time>
      </trkpt>
      <trkpt lat="44.82746" lon="5.26916">
        <ele>527</ele>
        <time>2020-02-23T09:51:50+01:00</time>
      </trkpt>
      <trkpt lat="44.82735" lon="5.2688">
        <ele>529</ele>
        <time>2020-02-23T09:52:21+01:00</time>
      </trkpt>
      <trkpt lat="44.82695" lon="5.26806">
        <ele>532</ele>
        <time>2020-02-23T09:53:32+01:00</time>
      </trkpt>
      <trkpt lat="44.82674" lon="5.26772">
        <ele>533</ele>
        <time>2020-02-23T09:55:23+01:00</time>
      </trkpt>
      <trkpt lat="44.82661" lon="5.26725">
        <ele>535</ele>
        <time>2022-01-03T11:10:17+01:00</time>
      </trkpt>
      <trkpt lat="44.82668" lon="5.26673">
        <ele>540</ele>
        <time>2020-02-23T09:55:54+01:00</time>
      </trkpt>
      <trkpt lat="44.82661" lon="5.26597">
        <ele>540</ele>
        <time>2020-02-23T09:56:22+01:00</time>
      </trkpt>
      <trkpt lat="44.82678" lon="5.26585">
        <ele>539</ele>
        <time>2022-01-03T11:10:32+01:00</time>
      </trkpt>
      <trkpt lat="44.82773" lon="5.26551">
        <ele>541</ele>
        <time>2022-01-03T11:10:37+01:00</time>
      </trkpt>
      <trkpt lat="44.82813" lon="5.26533">
        <ele>538</ele>
        <time>2020-02-23T09:59:06+01:00</time>
      </trkpt>
      <trkpt lat="44.82837" lon="5.26531">
        <ele>540</ele>
        <time>2022-01-03T11:10:47+01:00</time>
      </trkpt>
      <trkpt lat="44.8284" lon="5.26516">
        <ele>540</ele>
        <time>2022-01-03T11:10:52+01:00</time>
      </trkpt>
      <trkpt lat="44.82827" lon="5.2649">
        <ele>539</ele>
        <time>2020-02-23T09:59:50+01:00</time>
      </trkpt>
      <trkpt lat="44.82834" lon="5.26465">
        <ele>544</ele>
        <time>2020-02-23T10:00:11+01:00</time>
      </trkpt>
      <trkpt lat="44.82863" lon="5.26436">
        <ele>542</ele>
        <time>2020-02-23T10:00:35+01:00</time>
      </trkpt>
      <trkpt lat="44.82898" lon="5.26419">
        <ele>544</ele>
        <time>2020-02-23T10:01:09+01:00</time>
      </trkpt>
      <trkpt lat="44.82952" lon="5.26366">
        <ele>545</ele>
        <time>2020-02-23T10:02:03+01:00</time>
      </trkpt>
      <trkpt lat="44.82998" lon="5.26264">
        <ele>540</ele>
        <time>2020-02-23T10:03:28+01:00</time>
      </trkpt>
      <trkpt lat="44.83024" lon="5.26245">
        <ele>538</ele>
        <time>2020-02-23T10:03:50+01:00</time>
      </trkpt>
      <trkpt lat="44.83043" lon="5.26228">
        <ele>535</ele>
        <time>2020-02-23T10:04:12+01:00</time>
      </trkpt>
      <trkpt lat="44.83117" lon="5.26213">
        <ele>541</ele>
        <time>2020-02-23T10:05:42+01:00</time>
      </trkpt>
      <trkpt lat="44.83157" lon="5.26172">
        <ele>541</ele>
        <time>2020-02-23T10:06:03+01:00</time>
      </trkpt>
      <trkpt lat="44.83187" lon="5.26158">
        <ele>542</ele>
        <time>2020-02-23T10:06:18+01:00</time>
      </trkpt>
      <trkpt lat="44.83181" lon="5.26117">
        <ele>540</ele>
        <time>2020-02-23T10:09:26+01:00</time>
      </trkpt>
      <trkpt lat="44.83167" lon="5.2611">
        <ele>541</ele>
        <time>2022-01-03T11:11:57+01:00</time>
      </trkpt>
      <trkpt lat="44.83143" lon="5.26115">
        <ele>542</ele>
        <time>2020-02-23T10:10:19+01:00</time>
      </trkpt>
      <trkpt lat="44.83096" lon="5.26127">
        <ele>543</ele>
        <time>2020-02-23T10:10:52+01:00</time>
      </trkpt>
      <trkpt lat="44.83051" lon="5.26109">
        <ele>550</ele>
        <time>2020-02-23T10:11:28+01:00</time>
      </trkpt>
      <trkpt lat="44.83039" lon="5.2611">
        <ele>550</ele>
        <time>2020-02-23T10:11:53+01:00</time>
      </trkpt>
      <trkpt lat="44.82988" lon="5.26138">
        <ele>549</ele>
        <time>2020-02-23T10:12:34+01:00</time>
      </trkpt>
      <trkpt lat="44.82966" lon="5.26138">
        <ele>551</ele>
        <time>2020-02-23T10:12:54+01:00</time>
      </trkpt>
      <trkpt lat="44.82934" lon="5.2612">
        <ele>556</ele>
        <time>2020-02-23T10:13:31+01:00</time>
      </trkpt>
      <trkpt lat="44.82919" lon="5.26103">
        <ele>557</ele>
        <time>2022-01-03T11:12:37+01:00</time>
      </trkpt>
      <trkpt lat="44.82923" lon="5.26087">
        <ele>559</ele>
        <time>2020-02-23T10:14:24+01:00</time>
      </trkpt>
      <trkpt lat="44.8294" lon="5.26109">
        <ele>558</ele>
        <time>2020-02-23T10:19:36+01:00</time>
      </trkpt>
      <trkpt lat="44.82963" lon="5.26109">
        <ele>560</ele>
        <time>2020-02-23T10:19:58+01:00</time>
      </trkpt>
      <trkpt lat="44.82977" lon="5.26074">
        <ele>568</ele>
        <time>2020-02-23T10:21:55+01:00</time>
      </trkpt>
      <trkpt lat="44.82966" lon="5.26047">
        <ele>572</ele>
        <time>2020-02-23T10:22:34+01:00</time>
      </trkpt>
      <trkpt lat="44.82975" lon="5.26016">
        <ele>578</ele>
        <time>2020-02-23T10:23:16+01:00</time>
      </trkpt>
      <trkpt lat="44.82986" lon="5.25987">
        <ele>581</ele>
        <time>2020-02-23T10:23:43+01:00</time>
      </trkpt>
      <trkpt lat="44.82997" lon="5.2596">
        <ele>583</ele>
        <time>2020-02-23T10:24:08+01:00</time>
      </trkpt>
      <trkpt lat="44.83019" lon="5.25948">
        <ele>587</ele>
        <time>2020-02-23T10:24:40+01:00</time>
      </trkpt>
      <trkpt lat="44.83042" lon="5.25933">
        <ele>591</ele>
        <time>2020-02-23T10:25:11+01:00</time>
      </trkpt>
      <trkpt lat="44.83064" lon="5.25924">
        <ele>596</ele>
        <time>2020-02-23T10:29:17+01:00</time>
      </trkpt>
      <trkpt lat="44.83076" lon="5.25892">
        <ele>603</ele>
        <time>2020-02-23T10:29:51+01:00</time>
      </trkpt>
      <trkpt lat="44.83098" lon="5.25885">
        <ele>611</ele>
        <time>2020-02-23T10:30:37+01:00</time>
      </trkpt>
      <trkpt lat="44.8312" lon="5.25891">
        <ele>616</ele>
        <time>2020-02-23T10:31:23+01:00</time>
      </trkpt>
      <trkpt lat="44.83142" lon="5.25902">
        <ele>615</ele>
        <time>2020-02-23T10:32:16+01:00</time>
      </trkpt>
      <trkpt lat="44.83158" lon="5.25879">
        <ele>622</ele>
        <time>2020-02-23T10:33:32+01:00</time>
      </trkpt>
      <trkpt lat="44.83175" lon="5.25854">
        <ele>627</ele>
        <time>2020-02-23T10:35:16+01:00</time>
      </trkpt>
      <trkpt lat="44.8319" lon="5.2583">
        <ele>633</ele>
        <time>2020-02-23T10:35:49+01:00</time>
      </trkpt>
      <trkpt lat="44.83213" lon="5.25771">
        <ele>650</ele>
        <time>2020-02-23T10:37:57+01:00</time>
      </trkpt>
      <trkpt lat="44.83252" lon="5.25726">
        <ele>659</ele>
        <time>2020-02-23T10:40:27+01:00</time>
      </trkpt>
      <trkpt lat="44.83262" lon="5.25664">
        <ele>669</ele>
        <time>2020-02-23T10:40:56+01:00</time>
      </trkpt>
      <trkpt lat="44.83281" lon="5.25618">
        <ele>677</ele>
        <time>2020-02-23T10:42:14+01:00</time>
      </trkpt>
      <trkpt lat="44.83287" lon="5.25585">
        <ele>677</ele>
        <time>2020-02-23T10:42:34+01:00</time>
      </trkpt>
      <trkpt lat="44.83319" lon="5.25437">
        <ele>676</ele>
        <time>2020-02-23T10:44:38+01:00</time>
      </trkpt>
      <trkpt lat="44.83336" lon="5.25404">
        <ele>674</ele>
        <time>2020-02-23T10:44:59+01:00</time>
      </trkpt>
      <trkpt lat="44.83381" lon="5.25248">
        <ele>685</ele>
        <time>2020-02-23T10:48:16+01:00</time>
      </trkpt>
      <trkpt lat="44.83427" lon="5.25146">
        <ele>698</ele>
        <time>2020-02-23T10:51:23+01:00</time>
      </trkpt>
      <trkpt lat="44.8356" lon="5.25066">
        <ele>705</ele>
        <time>2020-02-23T10:54:14+01:00</time>
      </trkpt>
      <trkpt lat="44.8361" lon="5.24967">
        <ele>732</ele>
        <time>2020-02-23T10:55:18+01:00</time>
      </trkpt>
      <trkpt lat="44.83651" lon="5.24983">
        <ele>729</ele>
        <time>2020-02-23T10:56:51+01:00</time>
      </trkpt>
      <trkpt lat="44.83695" lon="5.24936">
        <ele>741</ele>
        <time>2020-02-23T10:58:26+01:00</time>
      </trkpt>
      <trkpt lat="44.83739" lon="5.24851">
        <ele>756</ele>
        <time>2020-02-23T11:01:56+01:00</time>
      </trkpt>
      <trkpt lat="44.83749" lon="5.24821">
        <ele>763</ele>
        <time>2020-02-23T11:04:01+01:00</time>
      </trkpt>
      <trkpt lat="44.83835" lon="5.248">
        <ele>786</ele>
        <time>2020-02-23T11:06:56+01:00</time>
      </trkpt>
      <trkpt lat="44.83849" lon="5.24731">
        <ele>810</ele>
        <time>2020-02-23T11:08:36+01:00</time>
      </trkpt>
      <trkpt lat="44.83886" lon="5.24647">
        <ele>829</ele>
        <time>2020-02-23T11:11:08+01:00</time>
      </trkpt>
      <trkpt lat="44.83879" lon="5.24617">
        <ele>838</ele>
        <time>2020-02-23T11:11:53+01:00</time>
      </trkpt>
      <trkpt lat="44.83864" lon="5.24593">
        <ele>848</ele>
        <time>2020-02-23T11:12:31+01:00</time>
      </trkpt>
      <trkpt lat="44.83845" lon="5.24574">
        <ele>857</ele>
        <time>2020-02-23T11:13:10+01:00</time>
      </trkpt>
      <trkpt lat="44.83847" lon="5.24509">
        <ele>873</ele>
        <time>2020-02-23T11:15:11+01:00</time>
      </trkpt>
      <trkpt lat="44.83868" lon="5.2446">
        <ele>885</ele>
        <time>2020-02-23T11:15:46+01:00</time>
      </trkpt>
      <trkpt lat="44.83886" lon="5.24488">
        <ele>878</ele>
        <time>2020-02-23T11:19:43+01:00</time>
      </trkpt>
      <trkpt lat="44.83894" lon="5.24457">
        <ele>889</ele>
        <time>2020-02-23T11:21:03+01:00</time>
      </trkpt>
      <trkpt lat="44.83915" lon="5.24467">
        <ele>893</ele>
        <time>2020-02-23T11:21:57+01:00</time>
      </trkpt>
      <trkpt lat="44.83934" lon="5.2445">
        <ele>902</ele>
        <time>2020-02-23T11:22:44+01:00</time>
      </trkpt>
      <trkpt lat="44.8392" lon="5.24424">
        <ele>909</ele>
        <time>2020-02-23T11:23:56+01:00</time>
      </trkpt>
      <trkpt lat="44.83933" lon="5.24399">
        <ele>925</ele>
        <time>2020-02-23T11:25:51+01:00</time>
      </trkpt>
      <trkpt lat="44.83955" lon="5.24387">
        <ele>939</ele>
        <time>2020-02-23T11:28:52+01:00</time>
      </trkpt>
      <trkpt lat="44.83951" lon="5.24369">
        <ele>944</ele>
        <time>2020-02-23T11:29:11+01:00</time>
      </trkpt>
      <trkpt lat="44.8397" lon="5.24352">
        <ele>961</ele>
        <time>2020-02-23T11:30:54+01:00</time>
      </trkpt>
      <trkpt lat="44.8395" lon="5.24337">
        <ele>960</ele>
        <time>2020-02-23T11:31:35+01:00</time>
      </trkpt>
      <trkpt lat="44.83971" lon="5.24323">
        <ele>975</ele>
        <time>2020-02-23T11:32:20+01:00</time>
      </trkpt>
      <trkpt lat="44.83964" lon="5.24291">
        <ele>987</ele>
        <time>2020-02-23T11:34:39+01:00</time>
      </trkpt>
      <trkpt lat="44.83967" lon="5.24257">
        <ele>1005</ele>
        <time>2020-02-23T11:35:56+01:00</time>
      </trkpt>
      <trkpt lat="44.83987" lon="5.2424">
        <ele>1019</ele>
        <time>2020-02-23T11:37:49+01:00</time>
      </trkpt>
      <trkpt lat="44.84012" lon="5.24222">
        <ele>1035</ele>
        <time>2020-02-23T11:39:21+01:00</time>
      </trkpt>
      <trkpt lat="44.84" lon="5.24179">
        <ele>1056</ele>
        <time>2020-02-23T11:45:46+01:00</time>
      </trkpt>
      <trkpt lat="44.84008" lon="5.24148">
        <ele>1075</ele>
        <time>2020-02-23T11:47:58+01:00</time>
      </trkpt>
      <trkpt lat="44.84003" lon="5.24117">
        <ele>1091</ele>
        <time>2020-02-23T11:49:42+01:00</time>
      </trkpt>
      <trkpt lat="44.84015" lon="5.2409">
        <ele>1109</ele>
        <time>2020-02-23T11:50:54+01:00</time>
      </trkpt>
      <trkpt lat="44.84031" lon="5.24098">
        <ele>1108</ele>
        <time>2020-02-23T11:51:37+01:00</time>
      </trkpt>
      <trkpt lat="44.8402" lon="5.2407">
        <ele>1122</ele>
        <time>2020-02-23T11:53:31+01:00</time>
      </trkpt>
      <trkpt lat="44.8404" lon="5.24055">
        <ele>1135</ele>
        <time>2020-02-23T11:55:24+01:00</time>
      </trkpt>
      <trkpt lat="44.84056" lon="5.24033">
        <ele>1152</ele>
        <time>2020-02-23T11:55:54+01:00</time>
      </trkpt>
      <trkpt lat="44.84098" lon="5.24011">
        <ele>1164</ele>
        <time>2020-02-23T11:57:32+01:00</time>
      </trkpt>
      <trkpt lat="44.84121" lon="5.24009">
        <ele>1164</ele>
        <time>2020-02-23T11:58:19+01:00</time>
      </trkpt>
      <trkpt lat="44.84104" lon="5.23988">
        <ele>1171</ele>
        <time>2020-02-23T12:06:46+01:00</time>
      </trkpt>
      <trkpt lat="44.84061" lon="5.23969">
        <ele>1181</ele>
        <time>2020-02-23T12:07:46+01:00</time>
      </trkpt>
      <trkpt lat="44.84005" lon="5.23908">
        <ele>1207</ele>
        <time>2020-02-23T12:11:03+01:00</time>
      </trkpt>
      <trkpt lat="44.83991" lon="5.23847">
        <ele>1219</ele>
        <time>2020-02-23T12:13:32+01:00</time>
      </trkpt>
      <trkpt lat="44.83946" lon="5.23857">
        <ele>1227</ele>
        <time>2020-02-23T12:14:40+01:00</time>
      </trkpt>
      <trkpt lat="44.83901" lon="5.23849">
        <ele>1240</ele>
        <time>2020-02-23T12:16:12+01:00</time>
      </trkpt>
      <trkpt lat="44.83859" lon="5.2383">
        <ele>1250</ele>
        <time>2020-02-23T12:17:19+01:00</time>
      </trkpt>
      <trkpt lat="44.83798" lon="5.23799">
        <ele>1251</ele>
        <time>2020-02-23T12:17:54+01:00</time>
      </trkpt>
      <trkpt lat="44.83783" lon="5.23794">
        <ele>1253</ele>
        <time>2022-01-03T11:18:52+01:00</time>
      </trkpt>
      <trkpt lat="44.83736" lon="5.23794">
        <ele>1259</ele>
        <time>2022-01-03T11:18:57+01:00</time>
      </trkpt>
      <trkpt lat="44.83695" lon="5.23779">
        <ele>1264</ele>
        <time>2020-02-23T12:21:21+01:00</time>
      </trkpt>
      <trkpt lat="44.83668" lon="5.23747">
        <ele>1269</ele>
        <time>2020-02-23T12:22:00+01:00</time>
      </trkpt>
      <trkpt lat="44.8363" lon="5.23712">
        <ele>1271</ele>
        <time>2020-02-23T12:23:01+01:00</time>
      </trkpt>
      <trkpt lat="44.8356" lon="5.23642">
        <ele>1280</ele>
        <time>2020-02-23T12:25:09+01:00</time>
      </trkpt>
      <trkpt lat="44.83514" lon="5.23579">
        <ele>1288</ele>
        <time>2020-02-23T12:26:08+01:00</time>
      </trkpt>
      <trkpt lat="44.83435" lon="5.23477">
        <ele>1299</ele>
        <time>2022-01-03T11:19:27+01:00</time>
      </trkpt>
      <trkpt lat="44.83389" lon="5.23359">
        <ele>1322</ele>
        <time>2022-01-03T11:19:32+01:00</time>
      </trkpt>
      <trkpt lat="44.83376" lon="5.23309">
        <ele>1329</ele>
        <time>2020-02-23T12:32:22+01:00</time>
      </trkpt>
      <trkpt lat="44.83389" lon="5.23359">
        <ele>1322</ele>
        <time>2022-01-03T11:19:42+01:00</time>
      </trkpt>
      <trkpt lat="44.83435" lon="5.23478">
        <ele>1299</ele>
        <time>2020-02-23T13:32:00+01:00</time>
      </trkpt>
      <trkpt lat="44.8356" lon="5.23642">
        <ele>1280</ele>
        <time>2022-01-03T11:19:52+01:00</time>
      </trkpt>
      <trkpt lat="44.83694" lon="5.2378">
        <ele>1264</ele>
        <time>2020-02-23T13:37:09+01:00</time>
      </trkpt>
      <trkpt lat="44.83736" lon="5.23792">
        <ele>1259</ele>
        <time>2020-02-23T13:37:57+01:00</time>
      </trkpt>
      <trkpt lat="44.83782" lon="5.23794">
        <ele>1253</ele>
        <time>2020-02-23T13:38:42+01:00</time>
      </trkpt>
      <trkpt lat="44.83799" lon="5.238">
        <ele>1251</ele>
        <time>2020-02-23T13:39:21+01:00</time>
      </trkpt>
      <trkpt lat="44.83776" lon="5.2386">
        <ele>1250</ele>
        <time>2020-02-23T13:42:34+01:00</time>
      </trkpt>
      <trkpt lat="44.83732" lon="5.23879">
        <ele>1248</ele>
        <time>2020-02-23T13:43:30+01:00</time>
      </trkpt>
      <trkpt lat="44.8369" lon="5.23905">
        <ele>1244</ele>
        <time>2020-02-23T13:44:12+01:00</time>
      </trkpt>
      <trkpt lat="44.83642" lon="5.23918">
        <ele>1241</ele>
        <time>2020-02-23T13:44:46+01:00</time>
      </trkpt>
      <trkpt lat="44.83584" lon="5.23906">
        <ele>1244</ele>
        <time>2020-02-23T13:45:19+01:00</time>
      </trkpt>
      <trkpt lat="44.83563" lon="5.23917">
        <ele>1241</ele>
        <time>2020-02-23T13:46:17+01:00</time>
      </trkpt>
      <trkpt lat="44.83521" lon="5.23921">
        <ele>1238</ele>
        <time>2020-02-23T13:47:29+01:00</time>
      </trkpt>
      <trkpt lat="44.8351" lon="5.23971">
        <ele>1229</ele>
        <time>2020-02-23T13:47:46+01:00</time>
      </trkpt>
      <trkpt lat="44.83445" lon="5.24065">
        <ele>1199</ele>
        <time>2020-02-23T13:50:11+01:00</time>
      </trkpt>
      <trkpt lat="44.8342" lon="5.24064">
        <ele>1191</ele>
        <time>2020-02-23T13:50:36+01:00</time>
      </trkpt>
      <trkpt lat="44.83399" lon="5.2405">
        <ele>1182</ele>
        <time>2020-02-23T13:53:37+01:00</time>
      </trkpt>
      <trkpt lat="44.83378" lon="5.24062">
        <ele>1169</ele>
        <time>2020-02-23T13:57:55+01:00</time>
      </trkpt>
      <trkpt lat="44.83353" lon="5.24064">
        <ele>1154</ele>
        <time>2020-02-23T13:59:03+01:00</time>
      </trkpt>
      <trkpt lat="44.83331" lon="5.24071">
        <ele>1143</ele>
        <time>2020-02-23T14:00:25+01:00</time>
      </trkpt>
      <trkpt lat="44.83312" lon="5.24088">
        <ele>1132</ele>
        <time>2020-02-23T14:00:51+01:00</time>
      </trkpt>
      <trkpt lat="44.83292" lon="5.24103">
        <ele>1121</ele>
        <time>2020-02-23T14:01:49+01:00</time>
      </trkpt>
      <trkpt lat="44.83269" lon="5.24111">
        <ele>1112</ele>
        <time>2020-02-23T14:02:49+01:00</time>
      </trkpt>
      <trkpt lat="44.83246" lon="5.24107">
        <ele>1104</ele>
        <time>2020-02-23T14:04:16+01:00</time>
      </trkpt>
      <trkpt lat="44.83222" lon="5.24108">
        <ele>1092</ele>
        <time>2020-02-23T14:05:50+01:00</time>
      </trkpt>
      <trkpt lat="44.83199" lon="5.24113">
        <ele>1078</ele>
        <time>2020-02-23T14:06:56+01:00</time>
      </trkpt>
      <trkpt lat="44.832" lon="5.24081">
        <ele>1077</ele>
        <time>2020-02-23T14:09:31+01:00</time>
      </trkpt>
      <trkpt lat="44.83211" lon="5.24026">
        <ele>1070</ele>
        <time>2020-02-23T14:10:13+01:00</time>
      </trkpt>
      <trkpt lat="44.83213" lon="5.23994">
        <ele>1066</ele>
        <time>2020-02-23T14:10:46+01:00</time>
      </trkpt>
      <trkpt lat="44.832" lon="5.23966">
        <ele>1060</ele>
        <time>2020-02-23T14:11:12+01:00</time>
      </trkpt>
      <trkpt lat="44.83107" lon="5.24139">
        <ele>1010</ele>
        <time>2020-02-23T14:11:15+01:00</time>
      </trkpt>
      <trkpt lat="44.83206" lon="5.23954">
        <ele>1065</ele>
        <time>2020-02-23T14:11:16+01:00</time>
      </trkpt>
      <trkpt lat="44.83183" lon="5.23956">
        <ele>1053</ele>
        <time>2020-02-23T14:11:42+01:00</time>
      </trkpt>
      <trkpt lat="44.83159" lon="5.23966">
        <ele>1043</ele>
        <time>2020-02-23T14:12:42+01:00</time>
      </trkpt>
      <trkpt lat="44.83118" lon="5.2404">
        <ele>1015</ele>
        <time>2020-02-23T14:14:00+01:00</time>
      </trkpt>
      <trkpt lat="44.83135" lon="5.24011">
        <ele>1025</ele>
        <time>2020-02-23T14:14:03+01:00</time>
      </trkpt>
      <trkpt lat="44.83112" lon="5.24036">
        <ele>1013</ele>
        <time>2020-02-23T14:14:49+01:00</time>
      </trkpt>
      <trkpt lat="44.83075" lon="5.24121">
        <ele>1000</ele>
        <time>2020-02-23T14:15:23+01:00</time>
      </trkpt>
      <trkpt lat="44.83109" lon="5.24052">
        <ele>1010</ele>
        <time>2020-02-23T14:15:27+01:00</time>
      </trkpt>
      <trkpt lat="44.83091" lon="5.24071">
        <ele>1003</ele>
        <time>2020-02-23T14:16:44+01:00</time>
      </trkpt>
      <trkpt lat="44.83057" lon="5.24086">
        <ele>986</ele>
        <time>2020-02-23T14:17:22+01:00</time>
      </trkpt>
      <trkpt lat="44.83044" lon="5.24115">
        <ele>984</ele>
        <time>2020-02-23T14:17:55+01:00</time>
      </trkpt>
      <trkpt lat="44.83027" lon="5.24137">
        <ele>976</ele>
        <time>2020-02-23T14:18:43+01:00</time>
      </trkpt>
      <trkpt lat="44.83002" lon="5.24142">
        <ele>964</ele>
        <time>2020-02-23T14:19:08+01:00</time>
      </trkpt>
      <trkpt lat="44.82979" lon="5.24138">
        <ele>953</ele>
        <time>2020-02-23T14:20:38+01:00</time>
      </trkpt>
      <trkpt lat="44.82965" lon="5.24163">
        <ele>948</ele>
        <time>2020-02-23T14:21:12+01:00</time>
      </trkpt>
      <trkpt lat="44.82943" lon="5.24146">
        <ele>937</ele>
        <time>2020-02-23T14:21:43+01:00</time>
      </trkpt>
      <trkpt lat="44.8292" lon="5.24153">
        <ele>929</ele>
        <time>2020-02-23T14:22:40+01:00</time>
      </trkpt>
      <trkpt lat="44.82899" lon="5.24139">
        <ele>921</ele>
        <time>2020-02-23T14:23:23+01:00</time>
      </trkpt>
      <trkpt lat="44.82881" lon="5.24157">
        <ele>910</ele>
        <time>2020-02-23T14:24:13+01:00</time>
      </trkpt>
      <trkpt lat="44.82858" lon="5.24154">
        <ele>902</ele>
        <time>2020-02-23T14:24:48+01:00</time>
      </trkpt>
      <trkpt lat="44.82837" lon="5.2417">
        <ele>894</ele>
        <time>2020-02-23T14:25:12+01:00</time>
      </trkpt>
      <trkpt lat="44.82815" lon="5.2416">
        <ele>889</ele>
        <time>2020-02-23T14:26:15+01:00</time>
      </trkpt>
      <trkpt lat="44.82797" lon="5.24135">
        <ele>886</ele>
        <time>2020-02-23T14:26:53+01:00</time>
      </trkpt>
      <trkpt lat="44.82774" lon="5.24134">
        <ele>879</ele>
        <time>2020-02-23T14:27:18+01:00</time>
      </trkpt>
      <trkpt lat="44.8275" lon="5.24134">
        <ele>872</ele>
        <time>2020-02-23T14:28:11+01:00</time>
      </trkpt>
      <trkpt lat="44.82732" lon="5.24108">
        <ele>869</ele>
        <time>2020-02-23T14:28:42+01:00</time>
      </trkpt>
      <trkpt lat="44.82713" lon="5.24126">
        <ele>867</ele>
        <time>2020-02-23T14:31:01+01:00</time>
      </trkpt>
      <trkpt lat="44.82694" lon="5.24143">
        <ele>857</ele>
        <time>2020-02-23T14:31:41+01:00</time>
      </trkpt>
      <trkpt lat="44.82672" lon="5.24155">
        <ele>846</ele>
        <time>2020-02-23T14:32:13+01:00</time>
      </trkpt>
      <trkpt lat="44.8265" lon="5.24147">
        <ele>843</ele>
        <time>2020-02-23T14:32:59+01:00</time>
      </trkpt>
      <trkpt lat="44.82628" lon="5.2414">
        <ele>838</ele>
        <time>2020-02-23T14:33:25+01:00</time>
      </trkpt>
      <trkpt lat="44.82606" lon="5.24131">
        <ele>832</ele>
        <time>2020-02-23T14:34:16+01:00</time>
      </trkpt>
      <trkpt lat="44.82584" lon="5.24137">
        <ele>825</ele>
        <time>2020-02-23T14:34:46+01:00</time>
      </trkpt>
      <trkpt lat="44.8256" lon="5.2414">
        <ele>820</ele>
        <time>2020-02-23T14:35:07+01:00</time>
      </trkpt>
      <trkpt lat="44.82538" lon="5.24147">
        <ele>811</ele>
        <time>2020-02-23T14:35:50+01:00</time>
      </trkpt>
      <trkpt lat="44.82519" lon="5.24167">
        <ele>803</ele>
        <time>2020-02-23T14:36:54+01:00</time>
      </trkpt>
      <trkpt lat="44.82423" lon="5.24256">
        <ele>786</ele>
        <time>2020-02-23T14:38:57+01:00</time>
      </trkpt>
      <trkpt lat="44.82378" lon="5.24267">
        <ele>776</ele>
        <time>2020-02-23T14:40:04+01:00</time>
      </trkpt>
      <trkpt lat="44.82331" lon="5.24261">
        <ele>768</ele>
        <time>2020-02-23T14:41:10+01:00</time>
      </trkpt>
      <trkpt lat="44.82287" lon="5.24246">
        <ele>767</ele>
        <time>2020-02-23T14:41:52+01:00</time>
      </trkpt>
      <trkpt lat="44.82245" lon="5.24233">
        <ele>764</ele>
        <time>2020-02-23T14:42:39+01:00</time>
      </trkpt>
      <trkpt lat="44.82149" lon="5.24182">
        <ele>745</ele>
        <time>2020-02-23T14:44:17+01:00</time>
      </trkpt>
      <trkpt lat="44.82131" lon="5.24212">
        <ele>751</ele>
        <time>2020-02-23T14:44:41+01:00</time>
      </trkpt>
      <trkpt lat="44.82084" lon="5.24236">
        <ele>739</ele>
        <time>2020-02-23T14:46:26+01:00</time>
      </trkpt>
      <trkpt lat="44.82118" lon="5.24263">
        <ele>741</ele>
        <time>2020-02-23T14:53:04+01:00</time>
      </trkpt>
      <trkpt lat="44.82138" lon="5.24318">
        <ele>730</ele>
        <time>2020-02-23T14:53:32+01:00</time>
      </trkpt>
      <trkpt lat="44.82218" lon="5.2437">
        <ele>728</ele>
        <time>2020-02-23T14:55:40+01:00</time>
      </trkpt>
      <trkpt lat="44.82283" lon="5.24353">
        <ele>723</ele>
        <time>2020-02-23T14:55:56+01:00</time>
      </trkpt>
      <trkpt lat="44.82305" lon="5.24355">
        <ele>719</ele>
        <time>2020-02-23T14:56:36+01:00</time>
      </trkpt>
      <trkpt lat="44.82398" lon="5.24409">
        <ele>710</ele>
        <time>2020-02-23T14:57:55+01:00</time>
      </trkpt>
      <trkpt lat="44.82452" lon="5.24406">
        <ele>707</ele>
        <time>2020-02-23T14:59:04+01:00</time>
      </trkpt>
      <trkpt lat="44.82526" lon="5.24367">
        <ele>705</ele>
        <time>2020-02-23T15:00:07+01:00</time>
      </trkpt>
      <trkpt lat="44.82549" lon="5.24407">
        <ele>693</ele>
        <time>2020-02-23T15:00:22+01:00</time>
      </trkpt>
      <trkpt lat="44.82574" lon="5.24431">
        <ele>697</ele>
        <time>2020-02-23T15:01:09+01:00</time>
      </trkpt>
      <trkpt lat="44.82555" lon="5.24545">
        <ele>686</ele>
        <time>2022-01-03T11:26:52+01:00</time>
      </trkpt>
      <trkpt lat="44.82545" lon="5.24668">
        <ele>685</ele>
        <time>2022-01-03T11:26:57+01:00</time>
      </trkpt>
      <trkpt lat="44.82525" lon="5.24756">
        <ele>673</ele>
        <time>2020-02-23T15:06:24+01:00</time>
      </trkpt>
      <trkpt lat="44.82535" lon="5.24793">
        <ele>673</ele>
        <time>2020-02-23T15:06:46+01:00</time>
      </trkpt>
      <trkpt lat="44.82543" lon="5.24825">
        <ele>670</ele>
        <time>2020-02-23T15:10:15+01:00</time>
      </trkpt>
      <trkpt lat="44.82563" lon="5.2484">
        <ele>666</ele>
        <time>2020-02-23T15:10:44+01:00</time>
      </trkpt>
      <trkpt lat="44.8266" lon="5.24845">
        <ele>651</ele>
        <time>2020-02-23T15:12:25+01:00</time>
      </trkpt>
      <trkpt lat="44.82697" lon="5.24816">
        <ele>654</ele>
        <time>2020-02-23T15:13:43+01:00</time>
      </trkpt>
      <trkpt lat="44.82714" lon="5.24907">
        <ele>658</ele>
        <time>2020-02-23T15:14:46+01:00</time>
      </trkpt>
      <trkpt lat="44.82727" lon="5.24934">
        <ele>664</ele>
        <time>2020-02-23T15:15:26+01:00</time>
      </trkpt>
      <trkpt lat="44.82724" lon="5.24966">
        <ele>664</ele>
        <time>2020-02-23T15:16:37+01:00</time>
      </trkpt>
      <trkpt lat="44.82727" lon="5.25044">
        <ele>665</ele>
        <time>2020-02-23T15:18:06+01:00</time>
      </trkpt>
      <trkpt lat="44.82731" lon="5.25079">
        <ele>666</ele>
        <time>2020-02-23T15:18:30+01:00</time>
      </trkpt>
      <trkpt lat="44.82743" lon="5.25113">
        <ele>674</ele>
        <time>2020-02-23T15:18:55+01:00</time>
      </trkpt>
      <trkpt lat="44.82705" lon="5.25115">
        <ele>664</ele>
        <time>2020-02-23T15:19:27+01:00</time>
      </trkpt>
      <trkpt lat="44.82665" lon="5.25183">
        <ele>663</ele>
        <time>2020-02-23T15:21:11+01:00</time>
      </trkpt>
      <trkpt lat="44.8265" lon="5.25235">
        <ele>667</ele>
        <time>2020-02-23T15:21:51+01:00</time>
      </trkpt>
      <trkpt lat="44.82529" lon="5.25306">
        <ele>660</ele>
        <time>2020-02-23T15:23:45+01:00</time>
      </trkpt>
      <trkpt lat="44.82481" lon="5.2534">
        <ele>653</ele>
        <time>2020-02-23T15:28:43+01:00</time>
      </trkpt>
      <trkpt lat="44.82439" lon="5.25346">
        <ele>650</ele>
        <time>2020-02-23T15:29:06+01:00</time>
      </trkpt>
      <trkpt lat="44.82449" lon="5.25369">
        <ele>647</ele>
        <time>2022-01-03T11:28:32+01:00</time>
      </trkpt>
      <trkpt lat="44.82494" lon="5.25376">
        <ele>646</ele>
        <time>2020-02-23T15:32:07+01:00</time>
      </trkpt>
      <trkpt lat="44.82517" lon="5.25383">
        <ele>644</ele>
        <time>2020-02-23T15:32:30+01:00</time>
      </trkpt>
      <trkpt lat="44.82596" lon="5.25445">
        <ele>634</ele>
        <time>2020-02-23T15:36:38+01:00</time>
      </trkpt>
      <trkpt lat="44.82595" lon="5.25481">
        <ele>633</ele>
        <time>2020-02-23T15:37:02+01:00</time>
      </trkpt>
      <trkpt lat="44.82582" lon="5.25498">
        <ele>633</ele>
        <time>2020-02-23T15:37:30+01:00</time>
      </trkpt>
      <trkpt lat="44.82553" lon="5.25507">
        <ele>623</ele>
        <time>2020-02-23T15:37:56+01:00</time>
      </trkpt>
      <trkpt lat="44.82539" lon="5.2553">
        <ele>620</ele>
        <time>2020-02-23T15:38:20+01:00</time>
      </trkpt>
      <trkpt lat="44.82541" lon="5.25562">
        <ele>621</ele>
        <time>2020-02-23T15:39:23+01:00</time>
      </trkpt>
      <trkpt lat="44.82551" lon="5.25612">
        <ele>620</ele>
        <time>2020-02-23T15:39:46+01:00</time>
      </trkpt>
      <trkpt lat="44.82552" lon="5.25642">
        <ele>618</ele>
        <time>2020-02-23T15:40:07+01:00</time>
      </trkpt>
      <trkpt lat="44.82538" lon="5.2568">
        <ele>613</ele>
        <time>2020-02-23T15:40:30+01:00</time>
      </trkpt>
      <trkpt lat="44.82541" lon="5.25714">
        <ele>611</ele>
        <time>2020-02-23T15:41:20+01:00</time>
      </trkpt>
      <trkpt lat="44.82595" lon="5.25798">
        <ele>600</ele>
        <time>2020-02-23T15:42:33+01:00</time>
      </trkpt>
      <trkpt lat="44.82621" lon="5.25852">
        <ele>591</ele>
        <time>2020-02-23T15:44:39+01:00</time>
      </trkpt>
      <trkpt lat="44.82631" lon="5.25888">
        <ele>584</ele>
        <time>2020-02-23T15:45:27+01:00</time>
      </trkpt>
      <trkpt lat="44.82643" lon="5.25879">
        <ele>584</ele>
        <time>2020-02-23T15:49:02+01:00</time>
      </trkpt>
      <trkpt lat="44.82667" lon="5.25837">
        <ele>580</ele>
        <time>2020-02-23T15:52:04+01:00</time>
      </trkpt>
      <trkpt lat="44.82688" lon="5.25824">
        <ele>577</ele>
        <time>2020-02-23T15:52:24+01:00</time>
      </trkpt>
      <trkpt lat="44.8271" lon="5.2582">
        <ele>576</ele>
        <time>2020-02-23T15:53:32+01:00</time>
      </trkpt>
      <trkpt lat="44.82734" lon="5.25819">
        <ele>577</ele>
        <time>2020-02-23T15:53:50+01:00</time>
      </trkpt>
      <trkpt lat="44.82737" lon="5.25841">
        <ele>570</ele>
        <time>2020-02-23T15:54:08+01:00</time>
      </trkpt>
      <trkpt lat="44.8278" lon="5.2582">
        <ele>574</ele>
        <time>2020-02-23T15:54:28+01:00</time>
      </trkpt>
      <trkpt lat="44.82803" lon="5.25818">
        <ele>573</ele>
        <time>2020-02-23T15:54:49+01:00</time>
      </trkpt>
      <trkpt lat="44.82826" lon="5.25823">
        <ele>570</ele>
        <time>2020-02-23T15:55:09+01:00</time>
      </trkpt>
      <trkpt lat="44.82847" lon="5.25835">
        <ele>568</ele>
        <time>2020-02-23T15:55:29+01:00</time>
      </trkpt>
      <trkpt lat="44.82869" lon="5.25848">
        <ele>566</ele>
        <time>2020-02-23T15:55:49+01:00</time>
      </trkpt>
      <trkpt lat="44.82888" lon="5.25833">
        <ele>566</ele>
        <time>2020-02-23T15:56:13+01:00</time>
      </trkpt>
      <trkpt lat="44.82908" lon="5.25849">
        <ele>566</ele>
        <time>2020-02-23T15:56:37+01:00</time>
      </trkpt>
      <trkpt lat="44.82912" lon="5.2588">
        <ele>563</ele>
        <time>2020-02-23T15:57:28+01:00</time>
      </trkpt>
      <trkpt lat="44.82908" lon="5.25913">
        <ele>559</ele>
        <time>2020-02-23T15:57:51+01:00</time>
      </trkpt>
      <trkpt lat="44.82928" lon="5.25931">
        <ele>562</ele>
        <time>2020-02-23T15:58:21+01:00</time>
      </trkpt>
      <trkpt lat="44.82916" lon="5.25959">
        <ele>561</ele>
        <time>2020-02-23T15:58:45+01:00</time>
      </trkpt>
      <trkpt lat="44.82901" lon="5.25984">
        <ele>557</ele>
        <time>2020-02-23T15:59:10+01:00</time>
      </trkpt>
      <trkpt lat="44.829" lon="5.26017">
        <ele>559</ele>
        <time>2020-02-23T15:59:32+01:00</time>
      </trkpt>
      <trkpt lat="44.82899" lon="5.2605">
        <ele>559</ele>
        <time>2020-02-23T15:59:56+01:00</time>
      </trkpt>
      <trkpt lat="44.82913" lon="5.26076">
        <ele>559</ele>
        <time>2020-02-23T16:00:22+01:00</time>
      </trkpt>
      <trkpt lat="44.82919" lon="5.26104">
        <ele>557</ele>
        <time>2020-02-23T16:00:46+01:00</time>
      </trkpt>
      <trkpt lat="44.82934" lon="5.2612">
        <ele>556</ele>
        <time>2020-02-23T16:01:12+01:00</time>
      </trkpt>
      <trkpt lat="44.82966" lon="5.26138">
        <ele>552</ele>
        <time>2020-02-23T16:01:34+01:00</time>
      </trkpt>
      <trkpt lat="44.82987" lon="5.26139">
        <ele>549</ele>
        <time>2020-02-23T16:01:56+01:00</time>
      </trkpt>
      <trkpt lat="44.83039" lon="5.2611">
        <ele>550</ele>
        <time>2020-02-23T16:02:37+01:00</time>
      </trkpt>
      <trkpt lat="44.83051" lon="5.26108">
        <ele>550</ele>
        <time>2020-02-23T16:02:56+01:00</time>
      </trkpt>
      <trkpt lat="44.83097" lon="5.26127">
        <ele>543</ele>
        <time>2020-02-23T16:03:57+01:00</time>
      </trkpt>
      <trkpt lat="44.83142" lon="5.26115">
        <ele>542</ele>
        <time>2020-02-23T16:04:17+01:00</time>
      </trkpt>
      <trkpt lat="44.83165" lon="5.2611">
        <ele>541</ele>
        <time>2020-02-23T16:04:36+01:00</time>
      </trkpt>
      <trkpt lat="44.8318" lon="5.26117">
        <ele>540</ele>
        <time>2020-02-23T16:04:54+01:00</time>
      </trkpt>
      <trkpt lat="44.83187" lon="5.26158">
        <ele>542</ele>
        <time>2020-02-23T16:05:11+01:00</time>
      </trkpt>
      <trkpt lat="44.83158" lon="5.26173">
        <ele>541</ele>
        <time>2022-01-03T11:32:32+01:00</time>
      </trkpt>
      <trkpt lat="44.83118" lon="5.26212">
        <ele>541</ele>
        <time>2022-01-03T11:32:37+01:00</time>
      </trkpt>
      <trkpt lat="44.83044" lon="5.26229">
        <ele>535</ele>
        <time>2020-02-23T16:07:32+01:00</time>
      </trkpt>
      <trkpt lat="44.82998" lon="5.26265">
        <ele>540</ele>
        <time>2020-02-23T16:08:18+01:00</time>
      </trkpt>
      <trkpt lat="44.82952" lon="5.26366">
        <ele>545</ele>
        <time>2020-02-23T16:10:15+01:00</time>
      </trkpt>
      <trkpt lat="44.82898" lon="5.26419">
        <ele>544</ele>
        <time>2020-02-23T16:11:39+01:00</time>
      </trkpt>
      <trkpt lat="44.82862" lon="5.26436">
        <ele>542</ele>
        <time>2020-02-23T16:12:17+01:00</time>
      </trkpt>
      <trkpt lat="44.82835" lon="5.26466">
        <ele>544</ele>
        <time>2020-02-23T16:12:36+01:00</time>
      </trkpt>
      <trkpt lat="44.82827" lon="5.2649">
        <ele>539</ele>
        <time>2020-02-23T16:12:59+01:00</time>
      </trkpt>
      <trkpt lat="44.8284" lon="5.26516">
        <ele>540</ele>
        <time>2022-01-03T11:33:17+01:00</time>
      </trkpt>
      <trkpt lat="44.82837" lon="5.26531">
        <ele>540</ele>
        <time>2020-02-23T16:13:22+01:00</time>
      </trkpt>
      <trkpt lat="44.82813" lon="5.26533">
        <ele>538</ele>
        <time>2020-02-23T16:13:42+01:00</time>
      </trkpt>
      <trkpt lat="44.82773" lon="5.2655">
        <ele>540</ele>
        <time>2022-01-03T11:33:32+01:00</time>
      </trkpt>
      <trkpt lat="44.82679" lon="5.26585">
        <ele>539</ele>
        <time>2020-02-23T16:16:28+01:00</time>
      </trkpt>
      <trkpt lat="44.8266" lon="5.26597">
        <ele>540</ele>
        <time>2020-02-23T16:16:58+01:00</time>
      </trkpt>
      <trkpt lat="44.82668" lon="5.26673">
        <ele>540</ele>
        <time>2020-02-23T16:17:19+01:00</time>
      </trkpt>
      <trkpt lat="44.82662" lon="5.26724">
        <ele>536</ele>
        <time>2020-02-23T16:17:39+01:00</time>
      </trkpt>
      <trkpt lat="44.82674" lon="5.26771">
        <ele>533</ele>
        <time>2020-02-23T16:17:57+01:00</time>
      </trkpt>
      <trkpt lat="44.82694" lon="5.26806">
        <ele>532</ele>
        <time>2022-01-03T11:34:02+01:00</time>
      </trkpt>
      <trkpt lat="44.82735" lon="5.26879">
        <ele>529</ele>
        <time>2020-02-23T16:20:28+01:00</time>
      </trkpt>
      <trkpt lat="44.82746" lon="5.26917">
        <ele>527</ele>
        <time>2020-02-23T16:20:47+01:00</time>
      </trkpt>
      <trkpt lat="44.8275" lon="5.26967">
        <ele>523</ele>
        <time>2020-02-23T16:21:06+01:00</time>
      </trkpt>
      <trkpt lat="44.82782" lon="5.27045">
        <ele>522</ele>
        <time>2020-02-23T16:22:51+01:00</time>
      </trkpt>
      <trkpt lat="44.8281" lon="5.27132">
        <ele>522</ele>
        <time>2020-02-23T16:23:11+01:00</time>
      </trkpt>
      <trkpt lat="44.82839" lon="5.27181">
        <ele>519</ele>
        <time>2020-02-23T16:23:30+01:00</time>
      </trkpt>
      <trkpt lat="44.82843" lon="5.27195">
        <ele>518</ele>
        <time>2020-02-23T16:23:50+01:00</time>
      </trkpt>
    </trkseg>
  </trk>
</gpx>